Terminal Aerodrome Forecast
Issued by NWS

Home | Current Version | Previous Version | Text Only | Print | Product List | Glossary On
Versions: 1 2 3 4 5 6 7 8 9 10 11 12 13 14 15 16 17 18 19
000
FTUS41 KALY 301100
TAFPSF
TAF
KPSF 301132Z 3012/3112 27006KT P6SM SCT025 OVC040
      TEMPO 3012/3014 BKN030
     FM301400 29006KT P6SM BKN035
     FM301700 31008KT P6SM BKN040
     FM302300 32005KT P6SM SCT040 BKN250
     FM310500 VRB03KT P6SM SKC=

USA.gov is the U.S. government's official web portal to all federal, state and local government web resources and services.